Terminal Aerodrome Forecast
Issued by NWS Binghamton, NY

Home | Current Version | Previous Version | Text Only | Print | Product List | Glossary On
Versions: 1 2 3 4 5 6 7 8 9 10 11 12 13 14 15 16 17
682
FTUS41 KBGM 091603 AAB
TAFBGM
TAF AMD
KBGM 091603Z 0916/1012 14006KT 5SM -SN BKN025 OVC050
      TEMPO 0916/0918 2SM -SN
     FM091800 17005KT P6SM OVC020
      TEMPO 0921/0924 1 1/2SM -SN SCT008 OVC015
     FM100000 17004KT 1 1/2SM -SN SCT008 OVC012
     FM100600 20004KT P6SM BKN040=

USA.gov is the U.S. government's official web portal to all federal, state and local government web resources and services.